»·PEaware :: N2RF KBFI-KPDX

N2RF :: KBFI-KPDX

FLIGHT INFORMATION

Flight Status: Arrived
Operator: Privately registered:
United States
More flights under this callsign
Pilot: Max W. (2591)
Aircraft: BEECH AIRCRAFT SUPER KING AIR 350
(B350)
More flights by this aircraft type
Origin: KBFI Boeing Field/King Co Intl
United States
Destination: KPDX Portland Intl
United States
More flights between these airports :: More routes between these airports
Route: +NRVNA1 NRVNA BUWZO HELNS6
File this flight plan on PilotEdge
Remarks:
Altitude:
(Current/Filed)
17,000ft
Speed:
(Current/Filed)
290kts
Departed: 21-Nov-20 09:58 PM
Arrived: 21-Nov-20 10:36 PM
Distance/Time
Traveled:
117nm/0:38
Distance/Time
To Go:
Arrived

Flight Plot

Page will automatically refresh every two minutes.

Flight plan parsing failed; only flown route is shown


Map Options




Map Legend


Flown Route
Filed Route
Departure Airport
Arrival Airport
Navaid (VOR, NDB)
Fix

Horizontal Profiles

Position Reports

Time Latitude Longitude Heading Altitude Ground
Speed
21-Nov-20 21:38 47.538068 -122.305071 140 23ft 0kts
21-Nov-20 21:39 47.538068 -122.305071 140 23ft 0kts
21-Nov-20 21:40 47.538068 -122.305071 140 23ft 0kts
21-Nov-20 21:41 47.538068 -122.305071 140 23ft 0kts
21-Nov-20 21:43 47.538068 -122.305071 140 23ft 0kts
21-Nov-20 21:44 47.538068 -122.305071 140 23ft 0kts
21-Nov-20 21:45 47.538068 -122.305071 140 23ft 0kts
21-Nov-20 21:46 47.538068 -122.305071 140 23ft 0kts
21-Nov-20 21:47 47.538068 -122.305071 140 23ft 0kts
21-Nov-20 21:48 47.538068 -122.305071 140 23ft 0kts
21-Nov-20 21:49 47.538068 -122.305071 140 23ft 0kts
21-Nov-20 21:50 47.538068 -122.305071 140 23ft 0kts
21-Nov-20 21:51 47.538068 -122.305071 140 23ft 0kts
21-Nov-20 21:52 47.538068 -122.305071 140 23ft 0kts
21-Nov-20 21:53 47.538068 -122.305071 140 23ft 0kts
21-Nov-20 21:54 47.538068 -122.305071 140 23ft 0kts
21-Nov-20 21:55 47.538068 -122.305071 140 23ft 0kts
21-Nov-20 21:56 47.537922 -122.306415 313 23ft 10kts
21-Nov-20 21:57 47.540851 -122.310120 241 23ft 9kts
21-Nov-20 21:58 47.534396 -122.306219 150 45ft 122kts
21-Nov-20 21:59 47.495946 -122.273865 150 1913ft 178kts
21-Nov-20 21:59 47.459143 -122.243158 149 3039ft 175kts
21-Nov-20 22:01 47.407787 -122.231589 189 5912ft 169kts
21-Nov-20 22:01 47.369482 -122.240531 186 7627ft 169kts
21-Nov-20 22:03 47.314724 -122.249810 188 10098ft 172kts
21-Nov-20 22:03 47.278252 -122.255872 190 11657ft 175kts
21-Nov-20 22:04 47.229507 -122.263936 192 13620ft 179kts
21-Nov-20 22:06 47.171391 -122.273538 193 16039ft 184kts
21-Nov-20 22:06 47.126825 -122.281197 193 17043ft 225kts
21-Nov-20 22:07 47.055608 -122.293334 191 17019ft 280kts
21-Nov-20 22:08 46.974939 -122.307023 191 17012ft 297kts
21-Nov-20 22:09 46.893476 -122.310795 184 17009ft 302kts
21-Nov-20 22:10 46.811406 -122.310418 185 17010ft 302kts
21-Nov-20 22:11 46.732358 -122.310401 185 17011ft 302kts
21-Nov-20 22:12 46.647757 -122.310410 185 17010ft 302kts
21-Nov-20 22:13 46.563602 -122.310400 185 17010ft 301kts
21-Nov-20 22:14 46.479502 -122.310395 185 17001ft 302kts
21-Nov-20 22:15 46.393374 -122.310490 184 15748ft 309kts
21-Nov-20 22:16 46.307692 -122.310492 183 14234ft 303kts
21-Nov-20 22:17 46.229304 -122.325021 202 12696ft 273kts
21-Nov-20 22:18 46.159951 -122.364638 202 11174ft 263kts
21-Nov-20 22:19 46.092142 -122.402457 200 9992ft 256kts
21-Nov-20 22:20 46.024883 -122.439759 200 10003ft 264kts
21-Nov-20 22:21 45.955186 -122.478358 200 10001ft 270kts
21-Nov-20 22:22 45.887337 -122.515824 200 10004ft 271kts
21-Nov-20 22:23 45.817360 -122.554426 199 9334ft 262kts
21-Nov-20 22:24 45.750252 -122.591234 199 7826ft 254kts
21-Nov-20 22:25 45.734744 -122.677987 295 6368ft 279kts
21-Nov-20 22:26 45.770352 -122.775712 296 6008ft 283kts
21-Nov-20 22:27 45.802855 -122.876074 269 4524ft 252kts
21-Nov-20 22:28 45.759526 -122.935705 176 3025ft 227kts
21-Nov-20 22:29 45.714365 -122.886480 134 3166ft 206kts
21-Nov-20 22:30 45.681827 -122.820018 120 2990ft 224kts
21-Nov-20 22:31 45.653459 -122.747592 118 2494ft 208kts
21-Nov-20 22:32 45.627918 -122.681080 119 1285ft 193kts
21-Nov-20 22:33 45.608964 -122.632059 118 608ft 121kts
21-Nov-20 22:34 45.593067 -122.591147 121 34ft 90kts
21-Nov-20 22:35 45.587198 -122.583164 170 34ft 10kts

Navigation Log

Ident Type
Flight plan parsing failed, navigation log unavailable